createdAt,value
2023-02-02T00:00:03.495Z,29.14
2023-02-02T00:01:12.596Z,29.23
2023-02-02T00:01:42.654Z,29.16
2023-02-02T00:02:12.736Z,29.16
2023-02-02T00:02:42.862Z,29.13
2023-02-02T00:03:12.935Z,29.16
2023-02-02T00:03:43.074Z,29.22
2023-02-02T00:04:13.030Z,29.19
2023-02-02T00:04:43.101Z,29.19
2023-02-02T00:05:13.181Z,29.22
2023-02-02T00:05:43.267Z,29.19
2023-02-02T00:06:13.355Z,29.17
2023-02-02T00:06:43.422Z,29.20
2023-02-02T00:07:13.506Z,29.20
2023-02-02T00:07:43.580Z,29.23
2023-02-02T00:08:13.662Z,29.17
2023-02-02T00:08:43.744Z,29.17
2023-02-02T00:09:13.825Z,29.19
2023-02-02T00:09:43.904Z,29.16
2023-02-02T00:10:14.015Z,29.20
2023-02-02T00:10:44.080Z,29.20
2023-02-02T00:11:14.075Z,29.17
2023-02-02T00:11:44.073Z,29.19
2023-02-02T00:12:14.191Z,29.19
2023-02-02T00:12:44.184Z,29.19
2023-02-02T00:13:14.301Z,29.17
2023-02-02T00:13:44.424Z,29.20
2023-02-02T00:14:14.539Z,29.16
2023-02-02T00:14:44.527Z,29.20
2023-02-02T00:15:14.644Z,29.13
2023-02-02T00:15:44.652Z,29.17
2023-02-02T00:16:14.678Z,29.21
2023-02-02T00:16:44.671Z,29.21
2023-02-02T00:17:14.643Z,29.19
2023-02-02T00:17:44.637Z,29.16
2023-02-02T00:18:14.753Z,29.14
2023-02-02T00:18:44.750Z,29.16
2023-02-02T00:19:14.878Z,29.17
2023-02-02T00:19:44.864Z,29.16
2023-02-02T00:20:14.865Z,29.17
2023-02-02T00:20:44.860Z,29.23
2023-02-02T00:21:14.875Z,29.17
2023-02-02T00:21:44.851Z,29.21
2023-02-02T00:22:14.961Z,29.19
2023-02-02T00:22:45.083Z,29.16
2023-02-02T00:23:15.080Z,29.25
2023-02-02T00:23:45.193Z,29.17
2023-02-02T00:24:15.210Z,29.14
2023-02-02T00:24:45.196Z,29.16
2023-02-02T00:25:15.192Z,29.17
2023-02-02T00:25:45.189Z,29.17
2023-02-02T00:26:15.179Z,29.20
2023-02-02T00:26:45.351Z,29.20
2023-02-02T00:27:15.332Z,29.22
2023-02-02T00:27:45.448Z,29.22
2023-02-02T00:28:15.567Z,29.23
2023-02-02T00:28:45.564Z,29.19
2023-02-02T00:29:15.679Z,29.16
2023-02-02T00:29:45.799Z,29.18
2023-02-02T00:30:15.912Z,29.14
2023-02-02T00:30:46.074Z,29.19
2023-02-02T00:31:16.140Z,29.19
2023-02-02T00:31:46.251Z,29.14
2023-02-02T00:32:16.255Z,29.15
2023-02-02T00:32:46.355Z,29.17
2023-02-02T00:33:16.348Z,29.12
2023-02-02T00:33:46.346Z,29.15
2023-02-02T00:34:16.481Z,29.20
2023-02-02T00:34:46.581Z,29.22
2023-02-02T00:35:16.696Z,29.25
2023-02-02T00:35:46.690Z,29.20
2023-02-02T00:36:16.806Z,29.15
2023-02-02T00:36:46.936Z,29.18
2023-02-02T00:37:17.044Z,29.19
2023-02-02T00:37:47.038Z,29.20
2023-02-02T00:38:17.152Z,29.17
2023-02-02T00:38:47.149Z,29.20
2023-02-02T00:39:17.263Z,29.16
2023-02-02T00:39:47.390Z,29.17
2023-02-02T00:40:17.383Z,29.20
2023-02-02T00:40:47.499Z,29.20
2023-02-02T00:41:17.618Z,29.15
2023-02-02T00:41:47.738Z,29.21
2023-02-02T00:42:17.754Z,29.19
2023-02-02T00:42:47.846Z,29.21
2023-02-02T00:43:17.960Z,29.15
2023-02-02T00:43:48.085Z,29.21
2023-02-02T00:44:18.199Z,29.17
2023-02-02T00:44:48.325Z,29.18
2023-02-02T00:45:18.314Z,29.21
2023-02-02T00:45:48.481Z,29.20
2023-02-02T00:46:18.497Z,29.17
2023-02-02T00:46:48.468Z,29.17
2023-02-02T00:47:18.607Z,29.19
2023-02-02T00:47:48.748Z,29.17
2023-02-02T00:48:18.735Z,29.18
2023-02-02T00:48:48.740Z,29.18
2023-02-02T00:49:18.843Z,29.18
2023-02-02T00:49:48.842Z,29.18
2023-02-02T00:50:18.954Z,29.17
2023-02-02T00:50:49.076Z,29.20
2023-02-02T00:51:19.063Z,29.21
2023-02-02T00:51:49.068Z,29.20
2023-02-02T00:52:19.173Z,29.20
2023-02-02T00:52:49.181Z,29.20
2023-02-02T00:53:19.186Z,29.20
2023-02-02T00:53:49.294Z,29.21
2023-02-02T00:54:19.295Z,29.18
2023-02-02T00:54:49.297Z,29.23
2023-02-02T00:55:19.434Z,29.20
2023-02-02T00:55:49.540Z,29.24
2023-02-02T00:56:19.664Z,29.20
2023-02-02T00:56:49.777Z,29.17
2023-02-02T00:57:19.896Z,29.15
2023-02-02T00:57:49.904Z,29.15
2023-02-02T00:58:20.016Z,29.21
2023-02-02T00:58:50.122Z,29.18
2023-02-02T00:59:20.245Z,29.20
2023-02-02T00:59:50.358Z,29.20
2023-02-02T01:00:20.477Z,29.20
2023-02-02T01:00:50.624Z,29.23
2023-02-02T01:01:20.828Z,29.24
2023-02-02T01:01:50.735Z,29.23
2023-02-02T01:02:20.729Z,29.23
2023-02-02T01:02:50.834Z,29.15
2023-02-02T01:03:20.892Z,29.23
2023-02-02T01:03:50.980Z,29.18
2023-02-02T01:04:21.060Z,29.20
2023-02-02T01:04:51.146Z,29.20
2023-02-02T01:05:21.540Z,29.18
2023-02-02T01:05:51.247Z,29.23
2023-02-02T01:06:21.342Z,29.20
2023-02-02T01:06:51.414Z,29.18
2023-02-02T01:07:21.504Z,29.20
2023-02-02T01:07:51.583Z,29.21
2023-02-02T01:08:21.677Z,29.21
2023-02-02T01:08:51.767Z,29.18
2023-02-02T01:09:21.843Z,29.23
2023-02-02T01:09:51.927Z,29.17
2023-02-02T01:10:22.012Z,29.17
2023-02-02T01:10:52.103Z,29.17
2023-02-02T01:11:22.131Z,29.20
2023-02-02T01:11:52.105Z,29.18
2023-02-02T01:12:22.227Z,29.20
2023-02-02T01:12:52.328Z,29.17
2023-02-02T01:13:22.434Z,29.14
2023-02-02T01:13:52.432Z,29.21
2023-02-02T01:14:22.554Z,29.23
2023-02-02T01:14:52.542Z,29.21
2023-02-02T01:15:23.038Z,29.18
2023-02-02T01:15:52.748Z,29.20
2023-02-02T01:16:22.901Z,29.20
2023-02-02T01:16:52.898Z,29.17
2023-02-02T01:17:23.006Z,29.23
2023-02-02T01:17:53.125Z,29.20
2023-02-02T01:18:23.149Z,29.20
2023-02-02T01:18:53.253Z,29.20
2023-02-02T01:19:23.359Z,29.23
2023-02-02T01:19:53.478Z,29.18
2023-02-02T01:20:23.476Z,29.21
2023-02-02T01:20:53.593Z,29.18
2023-02-02T01:21:23.585Z,29.21
2023-02-02T01:21:53.711Z,29.18
2023-02-02T01:22:23.701Z,29.18
2023-02-02T01:22:53.823Z,29.18
2023-02-02T01:23:23.819Z,29.24
2023-02-02T01:23:53.930Z,29.18
2023-02-02T01:24:24.052Z,29.20
2023-02-02T01:24:54.050Z,29.15
2023-02-02T01:25:24.514Z,29.18
2023-02-02T01:25:54.280Z,29.20
2023-02-02T01:26:24.415Z,29.22
2023-02-02T01:26:54.394Z,29.26
2023-02-02T01:27:24.512Z,29.21
2023-02-02T01:27:54.629Z,29.23
2023-02-02T01:28:24.643Z,29.23
2023-02-02T01:28:54.635Z,29.26
2023-02-02T01:29:24.630Z,29.21
2023-02-02T01:29:54.636Z,29.24
2023-02-02T01:30:24.746Z,29.21
2023-02-02T01:30:54.900Z,29.24
2023-02-02T01:31:24.868Z,29.21
2023-02-02T01:31:55.088Z,29.18
2023-02-02T01:32:25.078Z,29.15
2023-02-02T01:32:55.199Z,29.21
2023-02-02T01:33:25.334Z,29.18
2023-02-02T01:33:55.313Z,29.20
2023-02-02T01:34:25.439Z,29.17
2023-02-02T01:34:55.549Z,29.24
2023-02-02T01:35:26.001Z,29.21
2023-02-02T01:35:55.754Z,29.21
2023-02-02T01:36:25.742Z,29.18
2023-02-02T01:36:55.739Z,29.22
2023-02-02T01:37:25.861Z,29.21
2023-02-02T01:37:55.985Z,29.21
2023-02-02T01:38:25.966Z,29.22
2023-02-02T01:38:56.085Z,29.18
2023-02-02T01:39:26.201Z,29.23
2023-02-02T01:39:56.321Z,29.21
2023-02-02T01:40:26.437Z,29.22
2023-02-02T01:40:56.554Z,29.22
2023-02-02T01:41:26.668Z,29.21
2023-02-02T01:41:56.786Z,29.28
2023-02-02T01:42:26.780Z,29.18
2023-02-02T01:42:56.919Z,29.27
2023-02-02T01:43:26.901Z,29.24
2023-02-02T01:43:56.900Z,29.26
2023-02-02T01:44:27.010Z,29.30
2023-02-02T01:44:57.127Z,29.26
2023-02-02T01:45:27.395Z,29.22
2023-02-02T01:45:57.417Z,29.18
2023-02-02T01:46:27.439Z,29.24
2023-02-02T01:46:57.426Z,29.22
2023-02-02T01:47:27.417Z,29.25
2023-02-02T01:47:57.536Z,29.18
2023-02-02T01:48:27.536Z,29.21
2023-02-02T01:48:57.687Z,29.22
2023-02-02T01:49:27.768Z,29.21
2023-02-02T01:49:57.763Z,29.25
2023-02-02T01:50:27.758Z,29.19
2023-02-02T01:50:57.872Z,29.25
2023-02-02T01:51:27.868Z,29.28
2023-02-02T01:51:57.880Z,29.28
2023-02-02T01:52:27.985Z,29.24
2023-02-02T01:52:58.105Z,29.27
2023-02-02T01:53:28.100Z,29.25
2023-02-02T01:53:58.219Z,29.22
2023-02-02T01:54:28.213Z,29.27
2023-02-02T01:54:58.337Z,29.27
2023-02-02T01:55:28.327Z,29.27
2023-02-02T01:55:58.460Z,29.25
2023-02-02T01:56:28.450Z,29.24
2023-02-02T01:56:58.570Z,29.30
2023-02-02T01:57:28.564Z,29.24
2023-02-02T01:57:58.563Z,29.27
2023-02-02T01:58:28.555Z,29.21
2023-02-02T01:58:58.685Z,29.25
2023-02-02T01:59:28.669Z,29.22
2023-02-02T01:59:58.692Z,29.25
2023-02-02T02:00:28.691Z,29.28
2023-02-02T02:00:58.797Z,29.27
2023-02-02T02:01:28.934Z,29.22
2023-02-02T02:01:58.927Z,29.27
2023-02-02T02:02:29.024Z,29.25
2023-02-02T02:02:59.100Z,29.25
2023-02-02T02:03:29.172Z,29.28
2023-02-02T02:03:59.284Z,29.28
2023-02-02T02:04:29.262Z,29.25
2023-02-02T02:04:59.342Z,29.25
2023-02-02T02:05:29.428Z,29.25
2023-02-02T02:05:59.548Z,29.28
2023-02-02T02:06:29.618Z,29.25
2023-02-02T02:06:59.690Z,29.31
2023-02-02T02:07:29.776Z,29.27
2023-02-02T02:07:59.855Z,29.27
2023-02-02T02:08:29.936Z,29.27
2023-02-02T02:09:00.039Z,29.23
2023-02-02T02:09:30.123Z,29.27
2023-02-02T02:10:00.199Z,29.25
2023-02-02T02:10:30.283Z,29.31
2023-02-02T02:11:00.383Z,29.28
2023-02-02T02:11:30.381Z,29.30
2023-02-02T02:12:00.502Z,29.28
2023-02-02T02:12:30.494Z,29.25
2023-02-02T02:13:00.615Z,29.28
2023-02-02T02:13:30.607Z,29.23
2023-02-02T02:14:00.725Z,29.31
2023-02-02T02:14:30.837Z,29.30
2023-02-02T02:15:00.835Z,29.28
2023-02-02T02:15:30.951Z,29.37
2023-02-02T02:16:01.075Z,29.29
2023-02-02T02:16:31.095Z,29.25
2023-02-02T02:17:01.082Z,29.32
2023-02-02T02:17:31.208Z,29.33
2023-02-02T02:18:01.200Z,29.31
2023-02-02T02:18:31.319Z,29.25
2023-02-02T02:19:01.438Z,29.23
2023-02-02T02:19:31.498Z,29.34
2023-02-02T02:20:01.504Z,29.29
2023-02-02T02:20:31.603Z,29.25
2023-02-02T02:21:01.727Z,29.31
2023-02-02T02:21:31.720Z,29.28
2023-02-02T02:22:01.835Z,29.28
2023-02-02T02:22:31.854Z,29.29
2023-02-02T02:23:01.847Z,29.29
2023-02-02T02:23:31.866Z,29.29
2023-02-02T02:24:01.960Z,29.25
2023-02-02T02:24:31.958Z,29.25
2023-02-02T02:25:02.076Z,29.26
2023-02-02T02:25:32.192Z,29.29
2023-02-02T02:26:02.314Z,29.30
2023-02-02T02:26:32.355Z,29.34
2023-02-02T02:27:02.350Z,29.25
2023-02-02T02:27:32.478Z,29.32
2023-02-02T02:28:02.469Z,29.33
2023-02-02T02:28:32.462Z,29.31
2023-02-02T02:29:02.467Z,29.28
2023-02-02T02:29:32.583Z,29.32
2023-02-02T02:30:02.711Z,29.28
2023-02-02T02:30:32.880Z,29.23
2023-02-02T02:31:02.886Z,29.31
2023-02-02T02:31:32.990Z,29.33
2023-02-02T02:32:02.917Z,29.31
2023-02-02T02:32:32.954Z,29.26
2023-02-02T02:33:02.943Z,29.34
2023-02-02T02:33:32.939Z,29.34
2023-02-02T02:34:03.057Z,29.31
2023-02-02T02:34:33.203Z,29.29
2023-02-02T02:35:03.299Z,29.32
2023-02-02T02:35:33.299Z,29.34
2023-02-02T02:36:03.279Z,29.34
2023-02-02T02:36:33.281Z,29.34
2023-02-02T02:37:03.309Z,29.31
2023-02-02T02:37:33.429Z,29.32
2023-02-02T02:38:03.430Z,29.32
2023-02-02T02:38:33.541Z,29.32
2023-02-02T02:39:03.665Z,29.34
2023-02-02T02:39:33.658Z,29.32
2023-02-02T02:40:03.785Z,29.34
2023-02-02T02:40:33.910Z,29.32
2023-02-02T02:41:03.895Z,29.29
2023-02-02T02:41:33.889Z,29.29
2023-02-02T02:42:04.009Z,29.31
2023-02-02T02:42:34.037Z,29.37
2023-02-02T02:43:04.035Z,29.31
2023-02-02T02:43:34.047Z,29.31
2023-02-02T02:44:04.143Z,29.32
2023-02-02T02:44:34.139Z,29.32
2023-02-02T02:45:04.263Z,29.37
2023-02-02T02:45:34.252Z,29.34
2023-02-02T02:46:04.317Z,29.28
2023-02-02T02:46:34.341Z,29.31
2023-02-02T02:47:04.305Z,29.34
2023-02-02T02:47:34.297Z,29.28
2023-02-02T02:48:04.420Z,29.29
2023-02-02T02:48:34.409Z,29.35
2023-02-02T02:49:04.538Z,29.29
2023-02-02T02:49:34.522Z,29.31
2023-02-02T02:50:04.663Z,29.35
2023-02-02T02:50:34.636Z,29.31
2023-02-02T02:51:04.630Z,29.32
2023-02-02T02:51:34.744Z,29.32
2023-02-02T02:52:04.742Z,29.35
2023-02-02T02:52:34.735Z,29.34
2023-02-02T02:53:04.855Z,29.29
2023-02-02T02:53:34.847Z,29.31
2023-02-02T02:54:04.852Z,29.31
2023-02-02T02:54:34.975Z,29.29
2023-02-02T02:55:04.965Z,29.32
2023-02-02T02:55:34.959Z,29.29
2023-02-02T02:56:05.082Z,29.31
2023-02-02T02:56:35.193Z,29.34
2023-02-02T02:57:05.191Z,29.35
2023-02-02T02:57:35.331Z,29.32
2023-02-02T02:58:05.359Z,29.35
2023-02-02T02:58:35.339Z,29.31
2023-02-02T02:59:05.459Z,29.32
2023-02-02T02:59:35.573Z,29.34
2023-02-02T03:00:05.568Z,29.31
2023-02-02T03:00:35.561Z,29.34
2023-02-02T03:01:05.649Z,29.28
2023-02-02T03:01:35.799Z,29.31
2023-02-02T03:02:05.745Z,29.32
2023-02-02T03:02:35.826Z,29.31
2023-02-02T03:03:05.927Z,29.31
2023-02-02T03:03:36.007Z,29.32
2023-02-02T03:04:06.097Z,29.28
2023-02-02T03:04:36.177Z,29.34
2023-02-02T03:05:06.265Z,29.32
2023-02-02T03:05:36.373Z,29.31
2023-02-02T03:06:06.431Z,29.31
2023-02-02T03:06:36.507Z,29.38
2023-02-02T03:07:06.592Z,29.35
2023-02-02T03:07:36.686Z,29.31
2023-02-02T03:08:06.775Z,29.34
2023-02-02T03:08:36.857Z,29.36
2023-02-02T03:09:06.935Z,29.35
2023-02-02T03:09:37.019Z,29.36
2023-02-02T03:10:07.102Z,29.32
2023-02-02T03:10:37.180Z,29.32
2023-02-02T03:11:07.299Z,29.37
2023-02-02T03:11:37.415Z,29.34
2023-02-02T03:12:07.410Z,29.34
2023-02-02T03:12:37.404Z,29.32
2023-02-02T03:13:07.432Z,29.30
2023-02-02T03:13:37.425Z,29.34
2023-02-02T03:14:07.539Z,29.32
2023-02-02T03:14:37.533Z,29.38
2023-02-02T03:15:07.526Z,29.37
2023-02-02T03:15:37.578Z,29.39
2023-02-02T03:16:07.659Z,29.35
2023-02-02T03:16:37.671Z,29.35
2023-02-02T03:17:07.784Z,29.35
2023-02-02T03:17:37.776Z,29.39
2023-02-02T03:18:07.918Z,29.35
2023-02-02T03:18:37.909Z,29.39
2023-02-02T03:19:07.908Z,29.37
2023-02-02T03:19:37.900Z,29.39
2023-02-02T03:20:08.019Z,29.37
2023-02-02T03:20:38.014Z,29.43
2023-02-02T03:21:08.027Z,29.37
2023-02-02T03:21:38.122Z,29.35
2023-02-02T03:22:08.245Z,29.38
2023-02-02T03:22:38.237Z,29.38
2023-02-02T03:23:08.251Z,29.42
2023-02-02T03:23:38.241Z,29.34
2023-02-02T03:24:08.239Z,29.38
2023-02-02T03:24:38.233Z,29.36
2023-02-02T03:25:08.354Z,29.34
2023-02-02T03:25:38.349Z,29.33
2023-02-02T03:26:08.471Z,29.39
2023-02-02T03:26:38.654Z,29.36
2023-02-02T03:27:08.624Z,29.36
2023-02-02T03:27:38.614Z,29.36
2023-02-02T03:28:08.762Z,29.38
2023-02-02T03:28:38.755Z,29.38
2023-02-02T03:29:08.748Z,29.34
2023-02-02T03:29:38.743Z,29.35
2023-02-02T03:30:08.868Z,29.41
2023-02-02T03:30:38.884Z,29.35
2023-02-02T03:31:09.013Z,29.39
2023-02-02T03:31:38.899Z,29.44
2023-02-02T03:32:08.887Z,29.34
2023-02-02T03:32:38.887Z,29.38
2023-02-02T03:33:08.875Z,29.39
2023-02-02T03:33:38.873Z,29.38
2023-02-02T03:34:08.879Z,29.35
2023-02-02T03:34:38.987Z,29.38
2023-02-02T03:35:08.983Z,29.36
2023-02-02T03:35:38.994Z,29.36
2023-02-02T03:36:09.094Z,29.43
2023-02-02T03:36:39.232Z,29.39
2023-02-02T03:37:09.211Z,29.39
2023-02-02T03:37:39.325Z,29.34
2023-02-02T03:38:09.316Z,29.39
2023-02-02T03:38:39.312Z,29.35
2023-02-02T03:39:09.436Z,29.39
2023-02-02T03:39:39.545Z,29.36
2023-02-02T03:40:09.557Z,29.41
2023-02-02T03:40:39.549Z,29.39
2023-02-02T03:41:09.663Z,29.39
2023-02-02T03:41:39.672Z,29.36
2023-02-02T03:42:09.719Z,29.38
2023-02-02T03:42:39.839Z,29.39
2023-02-02T03:43:09.834Z,29.35
2023-02-02T03:43:39.833Z,29.35
2023-02-02T03:44:09.947Z,29.44
2023-02-02T03:44:40.071Z,29.43
2023-02-02T03:45:10.063Z,29.36
2023-02-02T03:45:40.058Z,29.39
2023-02-02T03:46:10.252Z,29.43
2023-02-02T03:46:40.357Z,29.36
2023-02-02T03:47:10.330Z,29.39
2023-02-02T03:47:40.450Z,29.38
2023-02-02T03:48:10.564Z,29.38
2023-02-02T03:48:40.568Z,29.39
2023-02-02T03:49:10.565Z,29.41
2023-02-02T03:49:40.687Z,29.41
2023-02-02T03:50:10.678Z,29.42
2023-02-02T03:50:40.795Z,29.38
2023-02-02T03:51:10.912Z,29.43
2023-02-02T03:51:41.023Z,29.39
2023-02-02T03:52:11.042Z,29.43
2023-02-02T03:52:41.025Z,29.36
2023-02-02T03:53:11.137Z,29.33
2023-02-02T03:53:41.270Z,29.41
2023-02-02T03:54:11.267Z,29.39
2023-02-02T03:54:41.383Z,29.37
2023-02-02T03:55:11.499Z,29.35
2023-02-02T03:55:41.513Z,29.38
2023-02-02T03:56:11.491Z,29.32
2023-02-02T03:56:41.614Z,29.32
2023-02-02T03:57:11.607Z,29.32
2023-02-02T03:57:41.732Z,29.32
2023-02-02T03:58:11.720Z,29.31
2023-02-02T03:58:41.845Z,29.30
2023-02-02T03:59:11.840Z,29.28
2023-02-02T03:59:41.829Z,29.25
2023-02-02T04:00:11.942Z,29.25
2023-02-02T04:00:42.060Z,29.24
2023-02-02T04:01:12.139Z,29.22
2023-02-02T04:01:42.285Z,29.21
2023-02-02T04:02:12.224Z,29.18
2023-02-02T04:02:42.341Z,29.17
2023-02-02T04:03:12.403Z,29.14
2023-02-02T04:03:42.505Z,29.14
2023-02-02T04:04:12.589Z,29.12
2023-02-02T04:04:42.673Z,29.09
2023-02-02T04:05:12.759Z,29.12
2023-02-02T04:05:42.828Z,29.10
2023-02-02T04:06:12.911Z,29.08
2023-02-02T04:06:42.993Z,29.05
2023-02-02T04:07:13.075Z,29.07
2023-02-02T04:07:43.171Z,29.05
2023-02-02T04:08:13.225Z,29.04
2023-02-02T04:08:43.321Z,29.04
2023-02-02T04:09:13.388Z,29.10
2023-02-02T04:09:43.469Z,29.02
2023-02-02T04:10:13.544Z,29.05
2023-02-02T04:10:43.635Z,28.98
2023-02-02T04:11:13.744Z,28.99
2023-02-02T04:11:43.878Z,29.03
2023-02-02T04:12:13.863Z,29.03
2023-02-02T04:12:43.981Z,28.98
2023-02-02T04:13:13.973Z,29.00
2023-02-02T04:13:43.983Z,28.94
2023-02-02T04:14:13.987Z,28.92
2023-02-02T04:14:43.998Z,28.95
2023-02-02T04:15:13.991Z,29.01
2023-02-02T04:15:43.998Z,28.90
2023-02-02T04:16:14.175Z,28.95
2023-02-02T04:16:44.138Z,28.92
2023-02-02T04:17:14.135Z,28.94
2023-02-02T04:17:44.277Z,28.91
2023-02-02T04:18:14.263Z,28.89
2023-02-02T04:18:44.266Z,28.96
2023-02-02T04:19:14.360Z,28.90
2023-02-02T04:19:44.479Z,28.93
2023-02-02T04:20:14.472Z,28.90
2023-02-02T04:20:44.601Z,28.92
2023-02-02T04:21:14.706Z,28.92
2023-02-02T04:21:44.705Z,28.90
2023-02-02T04:22:14.702Z,28.90
2023-02-02T04:22:44.706Z,28.87
2023-02-02T04:23:14.732Z,28.96
2023-02-02T04:23:44.716Z,28.88
2023-02-02T04:24:14.710Z,28.87
2023-02-02T04:24:44.826Z,28.90
2023-02-02T04:25:14.820Z,28.88
2023-02-02T04:25:44.936Z,28.88
2023-02-02T04:26:15.050Z,28.85
2023-02-02T04:26:45.212Z,28.87
2023-02-02T04:27:15.203Z,28.85
2023-02-02T04:27:45.335Z,28.85
2023-02-02T04:28:15.433Z,28.88
2023-02-02T04:28:45.563Z,28.87
2023-02-02T04:29:15.547Z,28.87
2023-02-02T04:29:45.666Z,28.84
2023-02-02T04:30:15.776Z,28.85
2023-02-02T04:30:45.915Z,28.87
2023-02-02T04:31:16.185Z,28.88
2023-02-02T04:31:46.110Z,28.88
2023-02-02T04:32:16.084Z,28.87
2023-02-02T04:32:46.091Z,28.85
2023-02-02T04:33:16.081Z,28.87
2023-02-02T04:33:46.211Z,28.82
2023-02-02T04:34:16.201Z,28.87
2023-02-02T04:34:46.319Z,28.85
2023-02-02T04:35:16.438Z,28.82
2023-02-02T04:35:46.552Z,28.87
2023-02-02T04:36:16.545Z,28.88
2023-02-02T04:36:46.661Z,28.81
2023-02-02T04:37:16.657Z,28.79
2023-02-02T04:37:46.658Z,28.79
2023-02-02T04:38:16.772Z,28.78
2023-02-02T04:38:46.803Z,28.87
2023-02-02T04:39:16.772Z,28.82
2023-02-02T04:39:46.890Z,28.84
2023-02-02T04:40:17.005Z,28.83
2023-02-02T04:40:47.127Z,28.72
2023-02-02T04:41:17.122Z,28.78
2023-02-02T04:41:47.238Z,28.81
2023-02-02T04:42:17.356Z,28.81
2023-02-02T04:42:47.355Z,28.82
2023-02-02T04:43:17.481Z,28.78
2023-02-02T04:43:47.594Z,28.79
2023-02-02T04:44:17.590Z,28.78
2023-02-02T04:44:47.600Z,28.78
2023-02-02T04:45:17.705Z,28.77
2023-02-02T04:45:47.745Z,28.75
2023-02-02T04:46:17.759Z,28.79
2023-02-02T04:46:47.877Z,28.74
2023-02-02T04:47:17.871Z,28.72
2023-02-02T04:47:47.869Z,28.71
2023-02-02T04:48:17.983Z,28.75
2023-02-02T04:48:48.117Z,28.74
2023-02-02T04:49:18.109Z,28.74
2023-02-02T04:49:48.227Z,28.72
2023-02-02T04:50:18.342Z,28.71
2023-02-02T04:50:48.340Z,28.74
2023-02-02T04:51:18.334Z,28.68
2023-02-02T04:51:48.448Z,28.69
2023-02-02T04:52:18.443Z,28.68
2023-02-02T04:52:48.564Z,28.69
2023-02-02T04:53:18.680Z,28.71
2023-02-02T04:53:48.724Z,28.68
2023-02-02T04:54:18.761Z,28.65
2023-02-02T04:54:48.741Z,28.62
2023-02-02T04:55:18.857Z,28.65
2023-02-02T04:55:48.982Z,28.62
2023-02-02T04:56:19.102Z,28.61
2023-02-02T04:56:49.204Z,28.63
2023-02-02T04:57:19.321Z,28.56
2023-02-02T04:57:49.319Z,28.58
2023-02-02T04:58:19.439Z,28.61
2023-02-02T04:58:49.558Z,28.58
2023-02-02T04:59:19.552Z,28.58
2023-02-02T04:59:49.553Z,28.54
2023-02-02T05:00:19.549Z,28.58
2023-02-02T05:00:49.715Z,28.58
2023-02-02T05:01:19.772Z,28.58
2023-02-02T05:01:49.722Z,28.55
2023-02-02T05:02:19.808Z,28.58
2023-02-02T05:02:49.893Z,28.61
2023-02-02T05:03:19.973Z,28.61
2023-02-02T05:03:50.056Z,28.53
2023-02-02T05:04:20.163Z,28.58
2023-02-02T05:04:50.359Z,28.59
2023-02-02T05:05:20.303Z,28.56
2023-02-02T05:05:50.386Z,28.58
2023-02-02T05:06:20.463Z,28.56
2023-02-02T05:06:50.546Z,28.53
2023-02-02T05:07:20.638Z,28.54
2023-02-02T05:07:50.728Z,28.55
2023-02-02T05:08:20.813Z,28.55
2023-02-02T05:08:50.931Z,28.51
2023-02-02T05:09:21.037Z,28.44
2023-02-02T05:09:51.094Z,28.50
2023-02-02T05:10:21.177Z,28.50
2023-02-02T05:10:51.265Z,28.47
2023-02-02T05:11:21.267Z,28.47
2023-02-02T05:11:51.261Z,28.49
2023-02-02T05:12:21.384Z,28.46
2023-02-02T05:12:51.507Z,28.46
2023-02-02T05:13:21.512Z,28.41
2023-02-02T05:13:51.617Z,28.45
2023-02-02T05:14:21.736Z,28.45
2023-02-02T05:14:51.867Z,28.47
2023-02-02T05:15:22.312Z,28.45
2023-02-02T05:15:52.053Z,28.43
2023-02-02T05:16:22.115Z,28.41
2023-02-02T05:16:52.213Z,28.41
2023-02-02T05:17:22.200Z,28.43
2023-02-02T05:17:52.221Z,28.40
2023-02-02T05:18:22.239Z,28.48
2023-02-02T05:18:52.338Z,28.40
2023-02-02T05:19:22.330Z,28.42
2023-02-02T05:19:52.449Z,28.40
2023-02-02T05:20:22.576Z,28.40
2023-02-02T05:20:52.695Z,28.42
2023-02-02T05:21:22.686Z,28.45
2023-02-02T05:21:52.815Z,28.39
2023-02-02T05:22:22.808Z,28.40
2023-02-02T05:22:52.810Z,28.42
2023-02-02T05:23:22.797Z,28.37
2023-02-02T05:23:52.817Z,28.34
2023-02-02T05:24:22.815Z,28.37
2023-02-02T05:24:52.958Z,28.36
2023-02-02T05:25:23.176Z,28.31
2023-02-02T05:25:53.000Z,28.33
2023-02-02T05:26:23.176Z,28.33
2023-02-02T05:26:53.218Z,28.33
2023-02-02T05:27:23.264Z,28.30
2023-02-02T05:27:53.378Z,28.30
2023-02-02T05:28:23.496Z,28.29
2023-02-02T05:28:53.611Z,28.30
2023-02-02T05:29:23.516Z,28.27
2023-02-02T05:29:53.633Z,28.29
2023-02-02T05:30:23.623Z,28.29
2023-02-02T05:30:53.791Z,28.30
2023-02-02T05:31:23.814Z,28.24
2023-02-02T05:31:53.848Z,28.24
2023-02-02T05:32:23.818Z,28.21
2023-02-02T05:32:53.935Z,28.26
2023-02-02T05:33:23.929Z,28.23
2023-02-02T05:33:54.073Z,28.23
2023-02-02T05:34:24.061Z,28.20
2023-02-02T05:34:54.181Z,28.18
2023-02-02T05:35:24.606Z,28.18
2023-02-02T05:35:54.229Z,28.18
2023-02-02T05:36:24.358Z,28.20
2023-02-02T05:36:54.338Z,28.20
2023-02-02T05:37:24.334Z,28.17
2023-02-02T05:37:54.455Z,28.18
2023-02-02T05:38:24.573Z,28.15
2023-02-02T05:38:54.723Z,28.20
2023-02-02T05:39:24.698Z,28.63
2023-02-02T05:39:54.847Z,28.73
2023-02-02T05:40:24.809Z,28.54
2023-02-02T05:40:54.932Z,28.61
2023-02-02T05:41:25.053Z,28.55
2023-02-02T05:41:55.175Z,28.56
2023-02-02T05:42:25.154Z,28.56
2023-02-02T05:42:55.273Z,28.73
2023-02-02T05:43:25.390Z,28.68
2023-02-02T05:43:55.416Z,28.70
2023-02-02T05:44:25.406Z,28.72
2023-02-02T05:44:55.400Z,28.79
2023-02-02T05:45:25.776Z,28.88
2023-02-02T05:45:55.446Z,28.84
2023-02-02T05:46:25.440Z,28.83
2023-02-02T05:46:55.560Z,28.85
2023-02-02T05:47:25.561Z,28.91
2023-02-02T05:47:55.704Z,28.85
2023-02-02T05:48:25.715Z,28.91
2023-02-02T05:48:55.719Z,28.88
2023-02-02T05:49:25.713Z,28.83
2023-02-02T05:49:55.827Z,28.79
2023-02-02T05:50:25.820Z,28.80
2023-02-02T05:50:55.816Z,28.91
2023-02-02T05:51:25.940Z,28.93
2023-02-02T05:51:55.930Z,28.85
2023-02-02T05:52:25.936Z,28.80
2023-02-02T05:52:56.036Z,28.76
2023-02-02T05:53:26.047Z,28.74
2023-02-02T05:53:56.053Z,28.76
2023-02-02T05:54:26.047Z,28.68
2023-02-02T05:54:56.147Z,28.76
2023-02-02T05:55:26.560Z,28.76
2023-02-02T05:55:56.362Z,28.94
2023-02-02T05:56:26.483Z,29.05
2023-02-02T05:56:56.483Z,29.47
2023-02-02T05:57:26.481Z,29.70
2023-02-02T05:57:56.587Z,30.07
2023-02-02T05:58:26.583Z,29.70
2023-02-02T05:58:56.630Z,30.34
2023-02-02T05:59:26.601Z,30.13
2023-02-02T05:59:56.726Z,30.13
2023-02-02T06:00:26.727Z,30.07
2023-02-02T06:01:35.557Z,30.45
2023-02-02T06:02:05.639Z,30.69
2023-02-02T06:02:35.724Z,30.75
2023-02-02T06:03:05.960Z,30.86
2023-02-02T06:03:36.017Z,31.09
2023-02-02T06:04:06.083Z,31.06
2023-02-02T06:04:36.051Z,31.40
2023-02-02T06:05:06.114Z,31.15
2023-02-02T06:05:36.194Z,31.38
2023-02-02T06:06:07.184Z,31.21
2023-02-02T06:06:36.332Z,31.26
2023-02-02T06:07:06.406Z,31.26
2023-02-02T06:07:36.495Z,31.06
2023-02-02T06:08:06.570Z,31.05
2023-02-02T06:08:36.663Z,31.03
2023-02-02T06:09:06.756Z,31.17
2023-02-02T06:09:36.822Z,31.08
2023-02-02T06:10:06.924Z,31.13
2023-02-02T06:10:37.014Z,30.94
2023-02-02T06:11:07.084Z,30.88
2023-02-02T06:11:37.217Z,30.89
2023-02-02T06:12:07.205Z,30.79
2023-02-02T06:12:37.333Z,30.71
2023-02-02T06:13:07.331Z,30.73
2023-02-02T06:13:37.326Z,30.58
2023-02-02T06:14:07.471Z,30.64
2023-02-02T06:14:37.451Z,30.64
2023-02-02T06:15:07.450Z,30.47
2023-02-02T06:15:37.661Z,30.62
2023-02-02T06:16:07.743Z,30.46
2023-02-02T06:16:37.791Z,30.52
2023-02-02T06:17:07.893Z,30.35
2023-02-02T06:17:37.897Z,30.35
2023-02-02T06:18:07.892Z,30.27
2023-02-02T06:18:38.006Z,30.23
2023-02-02T06:19:08.010Z,30.27
2023-02-02T06:19:38.018Z,30.12
2023-02-02T06:20:08.003Z,30.11
2023-02-02T06:20:38.132Z,30.06
2023-02-02T06:21:08.241Z,30.03
2023-02-02T06:21:38.234Z,30.06
2023-02-02T06:22:08.350Z,30.03
2023-02-02T06:22:38.466Z,29.93
2023-02-02T06:23:08.486Z,29.99
2023-02-02T06:23:38.596Z,29.96
2023-02-02T06:24:08.597Z,29.98
2023-02-02T06:24:38.605Z,29.94
2023-02-02T06:25:08.593Z,29.95
2023-02-02T06:25:38.740Z,30.00
2023-02-02T06:26:08.827Z,29.98
2023-02-02T06:26:39.054Z,29.89
2023-02-02T06:27:09.054Z,29.88
2023-02-02T06:27:39.176Z,29.90
2023-02-02T06:28:09.279Z,30.02